createdAt,value
2019-04-14T00:02:47.559Z,6.70
2019-04-14T00:05:21.075Z,6.37
2019-04-14T00:07:53.912Z,5.70
2019-04-14T00:10:26.788Z,6.25
2019-04-14T00:12:59.972Z,6.45
2019-04-14T00:15:38.897Z,6.47
2019-04-14T00:18:07.503Z,7.12
2019-04-14T00:20:40.482Z,6.45
2019-04-14T00:23:13.087Z,5.97
2019-04-14T00:25:45.918Z,7.12
2019-04-14T00:28:18.489Z,6.22
2019-04-14T00:30:51.258Z,6.28
2019-04-14T00:33:24.536Z,5.78
2019-04-14T00:36:08.746Z,5.87
2019-04-14T00:38:43.591Z,6.05
2019-04-14T00:41:52.650Z,5.83
2019-04-14T00:44:45.614Z,6.47
2019-04-14T00:47:24.647Z,6.00
2019-04-14T00:52:30.038Z,5.92
2019-04-14T00:55:03.350Z,5.47
2019-04-14T00:57:37.574Z,6.22
2019-04-14T01:02:43.336Z,5.65
2019-04-14T01:05:15.947Z,5.33
2019-04-14T01:07:48.344Z,7.33
2019-04-14T01:10:21.310Z,5.75
2019-04-14T01:12:53.983Z,6.00
2019-04-14T01:15:26.760Z,5.92
2019-04-14T01:17:59.455Z,5.62
2019-04-14T01:20:31.886Z,5.70
2019-04-14T01:23:04.330Z,6.15
2019-04-14T01:25:37.344Z,6.30
2019-04-14T01:28:09.849Z,6.58
2019-04-14T01:30:41.908Z,5.20
2019-04-14T01:33:14.418Z,6.53
2019-04-14T01:35:48.849Z,5.87
2019-04-14T01:38:21.448Z,5.95
2019-04-14T01:40:55.178Z,6.03
2019-04-14T01:43:27.889Z,5.40
2019-04-14T01:46:09.571Z,6.15
2019-04-14T01:48:34.610Z,5.60
2019-04-14T01:54:23.544Z,5.50
2019-04-14T01:57:15.364Z,5.70
2019-04-14T01:59:48.234Z,5.72
2019-04-14T02:02:23.390Z,5.92
2019-04-14T02:04:55.861Z,5.33
2019-04-14T02:07:29.654Z,5.60
2019-04-14T02:10:02.355Z,5.60
2019-04-14T02:12:34.963Z,5.47
2019-04-14T02:15:09.101Z,6.15
2019-04-14T02:17:42.334Z,6.00
2019-04-14T02:20:14.895Z,5.80
2019-04-14T02:22:48.375Z,6.28
2019-04-14T02:25:21.050Z,6.05
2019-04-14T02:27:53.884Z,10.72
2019-04-14T02:30:34.036Z,5.67
2019-04-14T02:33:37.094Z,7.47
2019-04-14T02:36:27.543Z,6.30
2019-04-14T02:38:52.625Z,6.25
2019-04-14T02:46:20.506Z,5.42
2019-04-14T02:48:58.329Z,7.12
2019-04-14T02:59:07.526Z,6.20
2019-04-14T03:02:19.574Z,6.45
2019-04-14T03:04:15.202Z,5.55
2019-04-14T03:06:50.655Z,6.87
2019-04-14T03:09:30.535Z,5.50
2019-04-14T03:11:54.957Z,6.08
2019-04-14T03:25:22.601Z,5.25
2019-04-14T03:28:39.802Z,6.83
2019-04-14T03:37:21.986Z,6.80
2019-04-14T03:39:03.511Z,6.30
2019-04-14T03:43:54.916Z,6.12
2019-04-14T03:49:15.977Z,6.12
2019-04-14T03:51:53.362Z,7.03
2019-04-14T03:54:08.465Z,6.22
2019-04-14T03:56:55.659Z,6.03
2019-04-14T03:59:28.330Z,5.60
2019-04-14T04:02:00.983Z,6.40
2019-04-14T04:04:33.764Z,6.17
2019-04-14T04:07:06.355Z,6.65
2019-04-14T04:09:45.363Z,5.92
2019-04-14T04:12:18.336Z,6.10
2019-04-14T04:14:51.093Z,5.72
2019-04-14T04:17:36.438Z,5.40
2019-04-14T04:20:28.556Z,5.72
2019-04-14T04:23:26.995Z,5.90
2019-04-14T04:26:21.291Z,6.28
2019-04-14T04:29:11.168Z,5.72
2019-04-14T04:32:12.143Z,7.10
2019-04-14T04:35:06.541Z,5.97
2019-04-14T04:37:50.024Z,6.05
2019-04-14T04:40:25.328Z,5.92
2019-04-14T04:42:59.105Z,6.40
2019-04-14T04:45:32.032Z,6.03
2019-04-14T04:48:04.922Z,6.58
2019-04-14T04:50:38.868Z,5.90
2019-04-14T04:53:11.506Z,5.55
2019-04-14T04:58:17.286Z,5.90
2019-04-14T05:00:52.501Z,6.50
2019-04-14T05:03:25.332Z,7.22
2019-04-14T05:06:59.048Z,6.45
2019-04-14T05:09:49.357Z,6.47
2019-04-14T05:12:52.730Z,6.08
2019-04-14T05:18:26.792Z,6.25
2019-04-14T05:20:59.620Z,6.37
2019-04-14T05:23:32.103Z,6.78
2019-04-14T05:26:04.989Z,5.85
2019-04-14T05:28:37.873Z,6.20
2019-04-14T05:31:10.320Z,6.35
2019-04-14T05:33:43.313Z,6.05
2019-04-14T05:36:17.089Z,6.10
2019-04-14T05:38:51.676Z,6.42
2019-04-14T05:41:24.472Z,6.62
2019-04-14T05:43:59.905Z,6.90
2019-04-14T05:46:31.727Z,11.73
2019-04-14T05:49:04.435Z,8.05
2019-04-14T05:51:37.277Z,8.03
2019-04-14T05:54:10.333Z,8.55
2019-04-14T05:56:42.894Z,9.83
2019-04-14T05:59:15.677Z,10.82
2019-04-14T06:01:48.769Z,10.10
2019-04-14T06:04:22.125Z,11.22
2019-04-14T06:06:54.893Z,9.35
2019-04-14T06:09:27.588Z,10.25
2019-04-14T06:11:59.849Z,8.98
2019-04-14T06:14:32.392Z,8.60
2019-04-14T06:17:04.928Z,7.75
2019-04-14T06:19:40.550Z,9.13
2019-04-14T06:22:11.020Z,7.10
2019-04-14T06:24:43.089Z,5.70
2019-04-14T06:27:15.301Z,6.22
2019-04-14T06:29:49.897Z,7.22
2019-04-14T06:32:43.827Z,6.58
2019-04-14T06:35:22.077Z,5.97
2019-04-14T06:41:02.877Z,4.97
2019-04-14T06:43:34.897Z,5.65
2019-04-14T06:46:07.383Z,5.35
2019-04-14T06:48:39.889Z,5.08
2019-04-14T06:51:11.921Z,5.00
2019-04-14T06:53:44.287Z,5.85
2019-04-14T06:56:16.875Z,5.08
2019-04-14T06:58:49.492Z,4.70
2019-04-14T07:01:21.880Z,4.80
2019-04-14T07:03:54.634Z,4.42
2019-04-14T07:06:26.713Z,4.30
2019-04-14T07:08:58.798Z,4.70
2019-04-14T07:11:31.495Z,6.85
2019-04-14T07:14:03.895Z,4.97
2019-04-14T07:16:44.877Z,4.97
2019-04-14T07:19:17.486Z,4.67
2019-04-14T07:21:49.793Z,4.75
2019-04-14T07:24:22.470Z,4.42
2019-04-14T07:27:32.795Z,4.58
2019-04-14T07:30:22.505Z,4.62
2019-04-14T07:33:02.376Z,4.70
2019-04-14T07:36:02.315Z,4.22
2019-04-14T07:38:44.910Z,4.30
2019-04-14T07:41:28.910Z,4.08
2019-04-14T07:44:39.516Z,4.30
2019-04-14T07:47:32.836Z,4.30
2019-04-14T07:50:30.466Z,3.90
2019-04-14T07:53:15.306Z,3.90
2019-04-14T07:56:09.284Z,4.00
2019-04-14T07:59:02.907Z,4.08
2019-04-14T08:02:10.466Z,3.80
2019-04-14T08:04:48.200Z,4.10
2019-04-14T08:07:21.924Z,4.15
2019-04-14T08:09:57.882Z,4.20
2019-04-14T08:12:30.109Z,4.20
2019-04-14T08:15:03.105Z,4.15
2019-04-14T08:17:36.155Z,3.80
2019-04-14T08:20:09.369Z,3.83
2019-04-14T08:22:41.867Z,4.00
2019-04-14T08:25:14.323Z,4.12
2019-04-14T08:27:47.559Z,3.75
2019-04-14T08:30:19.881Z,3.80
2019-04-14T08:32:53.075Z,3.87
2019-04-14T08:35:25.654Z,3.80
2019-04-14T08:38:00.074Z,3.70
2019-04-14T08:40:32.369Z,3.87
2019-04-14T08:43:36.358Z,3.65
2019-04-14T08:46:33.885Z,3.67
2019-04-14T08:49:17.367Z,3.83
2019-04-14T08:52:07.419Z,3.72
2019-04-14T08:54:45.499Z,3.85
2019-04-14T08:57:34.343Z,4.08
2019-04-14T09:00:12.790Z,3.75
2019-04-14T09:03:22.654Z,4.15
2019-04-14T09:06:13.530Z,3.72
2019-04-14T09:09:17.019Z,3.65
2019-04-14T09:11:56.696Z,3.90
2019-04-14T09:14:28.922Z,3.90
2019-04-14T09:17:01.375Z,5.00
2019-04-14T09:19:33.873Z,3.47
2019-04-14T09:22:06.089Z,3.35
2019-04-14T09:24:38.696Z,3.75
2019-04-14T09:29:42.592Z,3.83
2019-04-14T09:32:15.614Z,3.87
2019-04-14T09:34:47.916Z,3.75
2019-04-14T09:37:21.325Z,3.17
2019-04-14T09:39:54.377Z,3.30
2019-04-14T09:42:27.033Z,3.65
2019-04-14T09:44:59.379Z,5.45
2019-04-14T09:47:32.331Z,3.50
2019-04-14T09:50:05.324Z,4.33
2019-04-14T09:52:37.939Z,3.67
2019-04-14T09:55:15.431Z,3.42
2019-04-14T09:57:57.523Z,3.50
2019-04-14T10:00:30.766Z,4.03
2019-04-14T10:03:03.850Z,3.30
2019-04-14T10:05:35.872Z,3.20
2019-04-14T10:08:08.329Z,3.30
2019-04-14T10:11:03.679Z,3.00
2019-04-14T10:13:35.850Z,3.10
2019-04-14T10:16:08.104Z,3.47
2019-04-14T10:18:40.385Z,3.35
2019-04-14T10:21:17.593Z,3.47
2019-04-14T10:23:46.863Z,3.40
2019-04-14T10:26:18.915Z,3.47
2019-04-14T10:28:51.719Z,3.30
2019-04-14T10:31:23.881Z,3.30
2019-04-14T10:33:56.922Z,3.10
2019-04-14T10:36:29.883Z,3.20
2019-04-14T10:39:02.103Z,3.10
2019-04-14T10:41:35.280Z,3.70
2019-04-14T10:44:08.356Z,3.20
2019-04-14T10:46:40.897Z,2.95
2019-04-14T10:49:13.327Z,2.98
2019-04-14T10:51:45.862Z,3.47
2019-04-14T10:54:17.930Z,2.65
2019-04-14T10:56:51.454Z,3.20
2019-04-14T10:59:33.239Z,3.10
2019-04-14T11:02:05.018Z,2.87
2019-04-14T11:04:37.388Z,3.02
2019-04-14T11:07:23.427Z,2.90
2019-04-14T11:09:55.783Z,2.83
2019-04-14T11:12:30.997Z,3.45
2019-04-14T11:15:03.891Z,2.92
2019-04-14T11:17:37.368Z,3.27
2019-04-14T11:20:09.862Z,2.95
2019-04-14T11:22:41.890Z,3.20
2019-04-14T11:25:13.871Z,3.85
2019-04-14T11:27:46.024Z,3.25
2019-04-14T11:30:21.485Z,3.40
2019-04-14T11:33:15.328Z,3.00
2019-04-14T11:35:55.308Z,3.15
2019-04-14T11:38:34.406Z,2.90
2019-04-14T11:41:10.907Z,3.25
2019-04-14T11:43:43.289Z,2.95
2019-04-14T11:46:17.359Z,3.37
2019-04-14T11:48:49.886Z,2.98
2019-04-14T11:51:21.898Z,4.12
2019-04-14T11:53:54.330Z,3.98
2019-04-14T11:56:26.883Z,3.08
2019-04-14T11:59:00.313Z,2.90
2019-04-14T12:01:51.068Z,3.42
2019-04-14T12:04:30.441Z,3.17
2019-04-14T12:07:24.376Z,3.25
2019-04-14T12:10:02.452Z,3.25
2019-04-14T12:12:35.464Z,3.40
2019-04-14T12:15:16.208Z,3.80
2019-04-14T12:17:43.883Z,3.52
2019-04-14T12:20:16.453Z,5.35
2019-04-14T12:22:49.097Z,3.33
2019-04-14T12:25:21.405Z,3.00
2019-04-14T12:27:53.990Z,3.60
2019-04-14T12:30:26.898Z,4.03
2019-04-14T12:32:59.637Z,3.80
2019-04-14T12:38:03.099Z,3.30
2019-04-14T12:40:36.900Z,3.70
2019-04-14T12:43:30.694Z,3.55
2019-04-14T12:46:33.907Z,4.35
2019-04-14T12:49:14.571Z,3.45
2019-04-14T12:52:05.461Z,3.30
2019-04-14T12:54:38.075Z,4.37
2019-04-14T12:57:13.064Z,4.42
2019-04-14T12:59:44.846Z,6.17
2019-04-14T13:02:26.094Z,5.72
2019-04-14T13:04:58.323Z,6.55
2019-04-14T13:07:30.845Z,6.95
2019-04-14T13:10:02.841Z,8.08
2019-04-14T13:12:34.888Z,6.92
2019-04-14T13:15:07.931Z,6.20
2019-04-14T13:17:40.015Z,6.72
2019-04-14T13:20:15.330Z,7.45
2019-04-14T13:22:47.993Z,8.35
2019-04-14T13:25:21.758Z,7.62
2019-04-14T13:30:29.652Z,6.00
2019-04-14T13:33:01.817Z,5.53
2019-04-14T13:35:34.309Z,5.35
2019-04-14T13:38:06.874Z,4.05
2019-04-14T13:40:39.859Z,3.62
2019-04-14T13:43:11.894Z,4.25
2019-04-14T13:45:43.887Z,3.45
2019-04-14T13:48:15.909Z,3.70
2019-04-14T13:50:48.118Z,3.87
2019-04-14T13:53:20.885Z,3.77
2019-04-14T13:55:54.653Z,3.87
2019-04-14T13:58:27.329Z,4.10
2019-04-14T14:01:00.043Z,4.55
2019-04-14T14:03:32.327Z,4.40
2019-04-14T14:06:05.362Z,5.08
2019-04-14T14:08:37.883Z,6.92
2019-04-14T14:11:28.864Z,7.40
2019-04-14T14:14:17.651Z,7.10
2019-04-14T14:19:57.907Z,7.67
2019-04-14T14:23:35.647Z,9.08
2019-04-14T14:28:42.392Z,11.18
2019-04-14T14:31:14.912Z,11.35
2019-04-14T14:33:47.032Z,11.43
2019-04-14T14:36:19.326Z,9.75
2019-04-14T14:38:52.900Z,10.58
2019-04-14T14:41:25.104Z,8.83
2019-04-14T14:43:57.465Z,8.78
2019-04-14T14:46:47.681Z,8.70
2019-04-14T14:52:09.089Z,4.47
2019-04-14T14:54:41.329Z,4.08
2019-04-14T14:57:13.902Z,4.72
2019-04-14T14:59:46.055Z,4.67
2019-04-14T15:02:19.131Z,4.75
2019-04-14T15:04:52.008Z,5.03
2019-04-14T15:07:25.481Z,4.30
2019-04-14T15:09:57.914Z,3.67
2019-04-14T15:12:31.017Z,4.50
2019-04-14T15:15:03.325Z,5.15
2019-04-14T15:17:45.177Z,6.22
2019-04-14T15:20:17.851Z,5.70
2019-04-14T15:22:52.291Z,4.87
2019-04-14T15:27:55.360Z,4.03
2019-04-14T15:30:27.887Z,4.95
2019-04-14T15:32:59.925Z,4.83
2019-04-14T15:35:31.888Z,5.05
2019-04-14T15:38:04.342Z,5.45
2019-04-14T15:40:37.316Z,4.03
2019-04-14T15:43:10.040Z,4.40
2019-04-14T15:45:43.441Z,4.97
2019-04-14T15:48:16.137Z,5.05
2019-04-14T15:50:48.897Z,4.78
2019-04-14T15:53:21.375Z,4.70
2019-04-14T15:55:54.325Z,4.47
2019-04-14T15:58:48.565Z,4.35
2019-04-14T16:01:39.313Z,5.03
2019-04-14T16:04:30.551Z,4.60
2019-04-14T16:07:26.444Z,6.95
2019-04-14T16:10:08.815Z,10.18
2019-04-14T16:12:51.341Z,7.87
2019-04-14T16:15:52.006Z,6.67
2019-04-14T16:18:45.831Z,7.28
2019-04-14T16:21:17.868Z,7.12
2019-04-14T16:23:51.057Z,7.47
2019-04-14T16:26:31.853Z,8.08
2019-04-14T16:29:26.531Z,8.63
2019-04-14T16:32:07.329Z,11.03
2019-04-14T16:35:04.638Z,12.15
2019-04-14T16:42:40.171Z,15.08
2019-04-14T16:45:12.482Z,13.90
2019-04-14T16:47:45.996Z,13.50
2019-04-14T16:50:20.099Z,11.78
2019-04-14T16:53:03.606Z,10.43
2019-04-14T16:55:57.419Z,6.53
2019-04-14T16:58:55.115Z,10.58
2019-04-14T17:01:32.515Z,8.20
2019-04-14T17:04:04.921Z,6.87
2019-04-14T17:06:36.886Z,10.25
2019-04-14T17:09:10.862Z,9.48
2019-04-14T17:11:43.466Z,7.97
2019-04-14T17:14:36.187Z,6.10
2019-04-14T17:17:36.819Z,8.65
2019-04-14T17:20:22.422Z,7.53
2019-04-14T17:23:31.921Z,7.30
2019-04-14T17:26:21.844Z,8.68
2019-04-14T17:29:22.416Z,8.60
2019-04-14T17:32:09.985Z,7.87
2019-04-14T17:35:00.914Z,8.30
2019-04-14T17:37:54.633Z,8.53
2019-04-14T17:43:39.658Z,8.85
2019-04-14T17:46:22.896Z,6.15
2019-04-14T17:49:13.569Z,8.38
2019-04-14T17:52:07.668Z,9.13
2019-04-14T17:54:48.476Z,7.67
2019-04-14T17:57:34.948Z,10.72
2019-04-14T18:00:21.786Z,10.35
2019-04-14T18:03:12.884Z,11.12
2019-04-14T18:05:51.840Z,11.40
2019-04-14T18:08:41.823Z,11.05
2019-04-14T18:11:51.824Z,12.75
2019-04-14T18:14:39.667Z,14.65
2019-04-14T18:17:30.135Z,13.35
2019-04-14T18:20:08.464Z,13.32
2019-04-14T18:22:41.100Z,12.80
2019-04-14T18:25:17.401Z,11.95
2019-04-14T18:28:09.983Z,12.20
2019-04-14T18:30:48.323Z,10.43
2019-04-14T18:33:46.400Z,7.42
2019-04-14T18:36:29.556Z,7.92
2019-04-14T18:39:20.487Z,7.60
2019-04-14T18:42:08.774Z,6.50
2019-04-14T18:47:43.721Z,6.80
2019-04-14T18:53:19.341Z,8.53
2019-04-14T18:56:01.469Z,8.78
2019-04-14T18:58:58.822Z,7.05
2019-04-14T19:01:34.908Z,6.22
2019-04-14T19:04:06.918Z,9.30
2019-04-14T19:06:39.176Z,8.68
2019-04-14T19:09:12.353Z,7.92
2019-04-14T19:11:56.769Z,6.47
2019-04-14T19:17:11.115Z,7.00
2019-04-14T19:20:00.589Z,6.80
2019-04-14T19:22:23.122Z,8.23
2019-04-14T19:25:07.361Z,6.42
2019-04-14T19:27:30.503Z,7.72
2019-04-14T19:30:03.165Z,7.22
2019-04-14T19:32:36.122Z,6.20
2019-04-14T19:35:08.873Z,7.20
2019-04-14T19:37:42.420Z,7.00
2019-04-14T19:40:15.112Z,6.03
2019-04-14T19:42:47.994Z,7.83
2019-04-14T19:45:20.659Z,7.78
2019-04-14T19:47:53.129Z,7.28
2019-04-14T19:50:25.881Z,8.18
2019-04-14T19:53:00.414Z,6.30
2019-04-14T19:55:32.863Z,6.50
2019-04-14T19:58:08.320Z,8.20
2019-04-14T20:00:44.331Z,7.47
2019-04-14T20:03:16.838Z,6.75
2019-04-14T20:05:48.896Z,6.30
2019-04-14T20:08:22.019Z,6.83
2019-04-14T20:10:59.876Z,6.75
2019-04-14T20:13:37.606Z,5.60
2019-04-14T20:16:28.089Z,7.13
2019-04-14T20:19:11.575Z,7.22
2019-04-14T20:22:18.326Z,6.15
2019-04-14T20:24:57.504Z,6.00
2019-04-14T20:27:36.868Z,6.50
2019-04-14T20:30:16.392Z,6.87
2019-04-14T20:32:49.695Z,6.28
2019-04-14T20:37:54.856Z,6.80
2019-04-14T20:40:27.358Z,6.10
2019-04-14T20:45:46.867Z,5.73
2019-04-14T20:48:19.067Z,6.17
2019-04-14T20:50:51.758Z,6.10
2019-04-14T20:55:57.335Z,6.05
2019-04-14T20:58:30.314Z,7.47
2019-04-14T21:01:04.487Z,5.30
2019-04-14T21:03:52.699Z,6.65
2019-04-14T21:09:26.407Z,6.22
2019-04-14T21:12:13.901Z,5.83
2019-04-14T21:15:07.725Z,6.20
2019-04-14T21:21:00.398Z,6.65
2019-04-14T21:23:50.407Z,5.75
2019-04-14T21:26:37.330Z,5.78
2019-04-14T21:29:13.850Z,6.08
2019-04-14T21:31:50.477Z,6.37
2019-04-14T21:34:56.076Z,6.53
2019-04-14T21:38:06.665Z,5.97
2019-04-14T21:40:57.462Z,5.95
2019-04-14T21:43:30.854Z,5.53
2019-04-14T21:46:03.079Z,6.50
2019-04-14T21:48:36.478Z,5.85
2019-04-14T21:51:09.525Z,7.25
2019-04-14T21:53:42.334Z,5.85
2019-04-14T21:56:14.871Z,5.72
2019-04-14T21:59:02.298Z,5.80
2019-04-14T22:01:56.333Z,6.10
2019-04-14T22:05:47.345Z,6.90
2019-04-14T22:08:25.438Z,5.78
2019-04-14T22:11:04.402Z,6.10
2019-04-14T22:13:36.878Z,6.03
2019-04-14T22:16:11.833Z,6.12
2019-04-14T22:18:44.889Z,6.65
2019-04-14T22:21:17.359Z,7.10
2019-04-14T22:24:00.386Z,6.22
2019-04-14T22:28:56.917Z,6.28
2019-04-14T22:31:29.871Z,5.90
2019-04-14T22:34:05.628Z,5.85
2019-04-14T22:36:37.873Z,5.90
2019-04-14T22:39:14.058Z,6.10
2019-04-14T22:41:46.849Z,5.70
2019-04-14T22:44:19.380Z,5.45
2019-04-14T22:46:52.347Z,5.72
2019-04-14T22:49:24.960Z,5.92
2019-04-14T22:51:57.102Z,5.92
2019-04-14T22:54:30.360Z,6.37
2019-04-14T22:57:02.906Z,5.97
2019-04-14T22:59:34.996Z,5.50
2019-04-14T23:02:19.744Z,5.47
2019-04-14T23:05:19.772Z,5.60
2019-04-14T23:08:38.863Z,6.00
2019-04-14T23:14:25.517Z,5.90
2019-04-14T23:17:19.371Z,5.72
2019-04-14T23:20:10.593Z,6.40
2019-04-14T23:22:59.393Z,5.87
2019-04-14T23:25:39.498Z,6.30
2019-04-14T23:28:15.917Z,5.95
2019-04-14T23:30:48.060Z,5.65
2019-04-14T23:33:20.379Z,5.62
2019-04-14T23:35:53.083Z,5.50
2019-04-14T23:38:25.872Z,6.10
2019-04-14T23:40:58.355Z,5.60
2019-04-14T23:43:30.890Z,5.78
2019-04-14T23:46:03.357Z,5.33
2019-04-14T23:48:36.329Z,5.65
2019-04-14T23:51:09.300Z,7.20
2019-04-14T23:53:41.852Z,5.22
2019-04-14T23:56:14.024Z,5.67
2019-04-14T23:58:46.333Z,5.37
